createdAt,value
2019-02-14T00:01:51.610Z,10.17
2019-02-14T00:04:21.297Z,13.43
2019-02-14T00:06:50.942Z,10.63
2019-02-14T00:09:20.629Z,11.80
2019-02-14T00:11:50.245Z,19.87
2019-02-14T00:14:19.886Z,10.77
2019-02-14T00:16:49.588Z,12.33
2019-02-14T00:19:19.281Z,11.27
2019-02-14T00:21:49.004Z,10.67
2019-02-14T00:24:18.779Z,10.90
2019-02-14T00:26:48.517Z,9.50
2019-02-14T00:29:18.123Z,9.33
2019-02-14T00:31:49.631Z,12.97
2019-02-14T00:34:19.320Z,12.33
2019-02-14T00:36:48.961Z,10.87
2019-02-14T00:39:18.547Z,15.17
2019-02-14T00:41:48.182Z,12.73
2019-02-14T00:44:17.855Z,10.70
2019-02-14T00:46:47.457Z,8.80
2019-02-14T00:49:17.115Z,12.17
2019-02-14T00:51:46.861Z,10.50
2019-02-14T00:54:16.539Z,16.93
2019-02-14T00:56:46.138Z,9.67
2019-02-14T00:59:15.734Z,10.93
2019-02-14T01:01:45.397Z,9.17
2019-02-14T01:04:15.119Z,11.50
2019-02-14T01:06:44.763Z,13.87
2019-02-14T01:09:14.315Z,11.77
2019-02-14T01:11:44.005Z,11.23
2019-02-14T01:14:13.520Z,16.13
2019-02-14T01:16:43.248Z,12.53
2019-02-14T01:19:12.941Z,14.00
2019-02-14T01:21:42.569Z,13.10
2019-02-14T01:24:12.233Z,12.77
2019-02-14T01:26:41.957Z,12.50
2019-02-14T01:29:11.641Z,14.87
2019-02-14T01:31:41.400Z,17.83
2019-02-14T01:34:11.104Z,17.03
2019-02-14T01:36:40.717Z,16.67
2019-02-14T01:39:10.475Z,15.23
2019-02-14T01:41:40.145Z,12.43
2019-02-14T01:44:09.800Z,16.00
2019-02-14T01:46:39.532Z,14.90
2019-02-14T01:49:09.292Z,16.43
2019-02-14T01:51:38.915Z,18.43
2019-02-14T01:54:08.557Z,16.37
2019-02-14T01:56:38.150Z,14.67
2019-02-14T01:59:07.852Z,16.33
2019-02-14T02:01:37.572Z,16.67
2019-02-14T02:04:07.057Z,20.93
2019-02-14T02:06:36.686Z,20.27
2019-02-14T02:09:07.777Z,21.87
2019-02-14T02:11:37.509Z,17.30
2019-02-14T02:14:07.120Z,21.30
2019-02-14T02:16:36.924Z,20.07
2019-02-14T02:19:06.480Z,20.30
2019-02-14T02:21:36.251Z,21.43
2019-02-14T02:24:05.844Z,19.93
2019-02-14T02:26:35.445Z,23.17
2019-02-14T02:29:05.226Z,26.60
2019-02-14T02:31:34.882Z,18.40
2019-02-14T02:34:04.389Z,25.33
2019-02-14T02:36:33.968Z,24.97
2019-02-14T02:39:04.818Z,24.00
2019-02-14T02:41:34.466Z,25.53
2019-02-14T02:44:04.212Z,19.90
2019-02-14T02:46:33.851Z,26.77
2019-02-14T02:49:03.356Z,21.30
2019-02-14T02:51:32.944Z,21.50
2019-02-14T02:54:02.750Z,24.40
2019-02-14T02:56:32.546Z,27.67
2019-02-14T02:59:02.677Z,27.13
2019-02-14T03:01:32.292Z,25.60
2019-02-14T03:04:02.041Z,26.47
2019-02-14T03:06:31.914Z,26.97
2019-02-14T03:09:01.763Z,27.23
2019-02-14T03:11:31.420Z,25.03
2019-02-14T03:14:01.103Z,24.27
2019-02-14T03:16:30.727Z,23.67
2019-02-14T03:19:00.419Z,27.37
2019-02-14T03:21:29.993Z,26.77
2019-02-14T03:23:59.636Z,29.27
2019-02-14T03:26:29.239Z,29.00
2019-02-14T03:28:58.988Z,28.77
2019-02-14T03:31:28.819Z,29.17
2019-02-14T03:33:58.448Z,28.10
2019-02-14T03:36:28.018Z,27.60
2019-02-14T03:38:57.622Z,28.70
2019-02-14T03:41:27.419Z,28.13
2019-02-14T03:43:57.070Z,29.40
2019-02-14T03:46:26.670Z,28.13
2019-02-14T03:48:56.422Z,29.73
2019-02-14T03:51:26.017Z,29.80
2019-02-14T03:53:55.783Z,28.20
2019-02-14T03:56:25.299Z,30.47
2019-02-14T03:58:55.055Z,34.00
2019-02-14T04:01:24.830Z,32.03
2019-02-14T04:03:54.448Z,31.27
2019-02-14T04:06:27.462Z,31.47
2019-02-14T04:08:55.647Z,30.10
2019-02-14T04:11:25.242Z,29.63
2019-02-14T04:13:54.789Z,31.90
2019-02-14T04:16:24.464Z,33.10
2019-02-14T04:18:54.000Z,28.90
2019-02-14T04:21:23.772Z,31.27
2019-02-14T04:23:53.430Z,30.13
2019-02-14T04:26:23.931Z,33.97
2019-02-14T04:28:53.671Z,40.10
2019-02-14T04:31:23.234Z,28.30
2019-02-14T04:33:52.922Z,40.00
2019-02-14T04:36:22.657Z,31.53
2019-02-14T04:38:52.262Z,30.37
2019-02-14T04:41:22.033Z,31.07
2019-02-14T04:43:51.868Z,28.40
2019-02-14T04:46:21.557Z,29.30
2019-02-14T04:48:51.182Z,32.03
2019-02-14T04:51:20.758Z,35.33
2019-02-14T04:53:50.453Z,37.97
2019-02-14T04:56:20.174Z,33.17
2019-02-14T04:58:49.724Z,32.60
2019-02-14T05:01:19.373Z,30.63
2019-02-14T05:03:49.024Z,25.93
2019-02-14T05:06:18.789Z,32.40
2019-02-14T05:08:48.539Z,31.20
2019-02-14T05:11:18.744Z,33.27
2019-02-14T05:13:49.793Z,31.43
2019-02-14T05:16:19.619Z,25.00
2019-02-14T05:18:49.075Z,35.77
2019-02-14T05:21:18.913Z,28.13
2019-02-14T05:23:48.610Z,28.07
2019-02-14T05:26:18.149Z,34.87
2019-02-14T05:28:48.088Z,30.00
2019-02-14T05:31:17.826Z,27.80
2019-02-14T05:33:47.456Z,34.00
2019-02-14T05:36:17.105Z,30.53
2019-02-14T05:38:46.808Z,28.67
2019-02-14T05:41:16.456Z,33.47
2019-02-14T05:43:46.194Z,34.43
2019-02-14T05:46:15.878Z,27.70
2019-02-14T05:48:45.519Z,30.97
2019-02-14T05:51:15.223Z,31.83
2019-02-14T05:53:44.905Z,26.37
2019-02-14T05:56:14.425Z,31.77
2019-02-14T05:58:43.993Z,40.67
2019-02-14T06:01:16.426Z,33.70
2019-02-14T06:03:45.953Z,25.73
2019-02-14T06:06:15.754Z,30.03
2019-02-14T06:08:45.567Z,37.63
2019-02-14T06:11:15.335Z,31.33
2019-02-14T06:13:45.113Z,31.90
2019-02-14T06:16:14.747Z,31.73
2019-02-14T06:18:44.420Z,34.37
2019-02-14T06:21:14.052Z,26.23
2019-02-14T06:23:43.718Z,30.87
2019-02-14T06:26:13.327Z,34.27
2019-02-14T06:28:43.012Z,31.43
2019-02-14T06:31:12.793Z,29.87
2019-02-14T06:33:44.277Z,33.97
2019-02-14T06:36:14.044Z,29.33
2019-02-14T06:38:44.035Z,30.30
2019-02-14T06:41:13.660Z,26.93
2019-02-14T06:43:43.211Z,26.53
2019-02-14T06:46:12.903Z,25.97
2019-02-14T06:48:42.569Z,25.53
2019-02-14T06:51:12.139Z,24.93
2019-02-14T06:53:41.958Z,22.73
2019-02-14T06:56:11.715Z,23.63
2019-02-14T06:58:41.496Z,27.33
2019-02-14T07:01:11.069Z,27.27
2019-02-14T07:03:41.077Z,28.30
2019-02-14T07:06:10.612Z,32.53
2019-02-14T07:08:40.148Z,27.27
2019-02-14T07:11:09.825Z,21.83
2019-02-14T07:13:39.438Z,21.27
2019-02-14T07:16:09.696Z,23.07
2019-02-14T07:18:39.295Z,24.37
2019-02-14T07:21:08.888Z,22.27
2019-02-14T07:23:38.514Z,23.60
2019-02-14T07:26:08.172Z,24.27
2019-02-14T07:28:37.709Z,25.70
2019-02-14T07:31:07.516Z,22.53
2019-02-14T07:33:37.134Z,24.97
2019-02-14T07:36:06.824Z,20.80
2019-02-14T07:38:36.598Z,25.50
2019-02-14T07:41:06.344Z,29.63
2019-02-14T07:43:36.015Z,22.60
2019-02-14T07:46:05.832Z,21.47
2019-02-14T07:48:35.591Z,23.37
2019-02-14T07:51:05.197Z,24.33
2019-02-14T07:53:34.970Z,21.27
2019-02-14T07:56:04.574Z,18.93
2019-02-14T07:58:34.256Z,19.17
2019-02-14T08:01:03.990Z,21.70
2019-02-14T08:03:33.676Z,17.60
2019-02-14T08:06:03.393Z,22.50
2019-02-14T08:08:32.980Z,20.27
2019-02-14T08:11:02.673Z,20.20
2019-02-14T08:13:32.274Z,25.40
2019-02-14T08:16:01.931Z,18.80
2019-02-14T08:18:31.629Z,19.07
2019-02-14T08:21:01.141Z,17.30
2019-02-14T08:23:30.885Z,20.33
2019-02-14T08:26:00.598Z,25.07
2019-02-14T08:28:30.284Z,24.50
2019-02-14T08:31:00.037Z,16.47
2019-02-14T08:33:29.770Z,23.60
2019-02-14T08:35:59.334Z,26.87
2019-02-14T08:38:28.996Z,20.37
2019-02-14T08:40:58.560Z,17.90
2019-02-14T08:43:28.305Z,20.60
2019-02-14T08:45:57.962Z,25.97
2019-02-14T08:48:27.804Z,24.97
2019-02-14T08:50:57.463Z,21.07
2019-02-14T08:53:28.562Z,18.40
2019-02-14T08:55:58.242Z,13.73
2019-02-14T08:58:27.962Z,17.50
2019-02-14T09:00:57.662Z,17.27
2019-02-14T09:03:27.268Z,17.53
2019-02-14T09:05:57.033Z,16.97
2019-02-14T09:08:26.681Z,16.93
2019-02-14T09:10:56.331Z,17.27
2019-02-14T09:13:26.032Z,20.20
2019-02-14T09:15:55.789Z,14.80
2019-02-14T09:18:25.249Z,17.77
2019-02-14T09:20:54.955Z,18.37
2019-02-14T09:23:24.679Z,21.47
2019-02-14T09:25:54.237Z,18.93
2019-02-14T09:28:23.868Z,21.80
2019-02-14T09:30:53.453Z,20.30
2019-02-14T09:33:23.126Z,14.60
2019-02-14T09:35:52.764Z,16.13
2019-02-14T09:38:22.373Z,20.93
2019-02-14T09:40:52.007Z,16.37
2019-02-14T09:43:29.629Z,16.53
2019-02-14T09:45:52.950Z,18.07
2019-02-14T09:48:22.730Z,20.60
2019-02-14T09:50:52.314Z,22.43
2019-02-14T09:53:21.909Z,15.43
2019-02-14T09:55:51.759Z,18.70
2019-02-14T09:58:22.725Z,22.20
2019-02-14T10:00:52.574Z,23.97
2019-02-14T10:03:22.265Z,21.83
2019-02-14T10:05:52.023Z,15.07
2019-02-14T10:08:21.583Z,16.33
2019-02-14T10:10:51.204Z,19.03
2019-02-14T10:13:20.767Z,19.83
2019-02-14T10:15:50.232Z,15.63
2019-02-14T10:18:19.946Z,14.23
2019-02-14T10:20:49.540Z,18.87
2019-02-14T10:23:19.291Z,17.23
2019-02-14T10:25:48.933Z,15.23
2019-02-14T10:28:18.491Z,20.33
2019-02-14T10:30:48.072Z,11.13
2019-02-14T10:33:17.656Z,14.63
2019-02-14T10:35:47.214Z,12.43
2019-02-14T10:38:22.264Z,16.53
2019-02-14T10:40:48.414Z,14.90
2019-02-14T10:43:17.994Z,13.23
2019-02-14T10:45:47.549Z,9.63
2019-02-14T10:48:17.324Z,13.43
2019-02-14T10:50:47.048Z,11.90
2019-02-14T10:53:16.637Z,9.57
2019-02-14T10:55:46.371Z,13.00
2019-02-14T10:58:16.192Z,10.33
2019-02-14T11:00:45.834Z,10.97
2019-02-14T11:03:15.538Z,9.83
2019-02-14T11:05:45.386Z,14.27
2019-02-14T11:08:15.044Z,12.83
2019-02-14T11:10:44.891Z,12.37
2019-02-14T11:13:14.638Z,10.00
2019-02-14T11:15:44.424Z,12.10
2019-02-14T11:18:14.262Z,10.73
2019-02-14T11:20:43.791Z,11.57
2019-02-14T11:23:13.542Z,18.70
2019-02-14T11:25:43.202Z,13.43
2019-02-14T11:28:12.793Z,14.03
2019-02-14T11:30:42.401Z,16.23
2019-02-14T11:33:12.022Z,14.47
2019-02-14T11:35:41.594Z,12.57
2019-02-14T11:38:11.317Z,13.37
2019-02-14T11:40:40.930Z,16.80
2019-02-14T11:43:10.522Z,13.90
2019-02-14T11:45:40.313Z,19.60
2019-02-14T11:48:09.866Z,11.43
2019-02-14T11:50:39.506Z,15.53
2019-02-14T11:53:14.212Z,18.47
2019-02-14T11:55:40.594Z,14.90
2019-02-14T11:58:10.249Z,16.73
2019-02-14T12:00:40.369Z,13.87
2019-02-14T12:03:09.978Z,17.50
2019-02-14T12:05:39.645Z,22.83
2019-02-14T12:08:09.632Z,18.63
2019-02-14T12:10:39.402Z,14.80
2019-02-14T12:13:09.134Z,16.57
2019-02-14T12:15:38.815Z,18.40
2019-02-14T12:18:08.448Z,16.00
2019-02-14T12:20:38.213Z,16.23
2019-02-14T12:23:07.940Z,17.40
2019-02-14T12:25:37.563Z,13.23
2019-02-14T12:28:07.219Z,20.43
2019-02-14T12:30:36.811Z,17.53
2019-02-14T12:33:06.506Z,14.20
2019-02-14T12:35:36.033Z,27.23
2019-02-14T12:38:05.577Z,21.17
2019-02-14T12:40:35.205Z,19.23
2019-02-14T12:43:04.804Z,20.23
2019-02-14T12:45:34.535Z,21.43
2019-02-14T12:48:04.186Z,21.70
2019-02-14T12:50:35.738Z,19.77
2019-02-14T12:53:05.149Z,19.40
2019-02-14T12:55:34.751Z,19.53
2019-02-14T12:58:04.540Z,19.07
2019-02-14T13:00:34.253Z,19.87
2019-02-14T13:03:03.984Z,17.10
2019-02-14T13:05:33.582Z,19.27
2019-02-14T13:08:03.362Z,15.60
2019-02-14T13:10:33.005Z,22.13
2019-02-14T13:13:02.590Z,17.63
2019-02-14T13:15:32.374Z,23.20
2019-02-14T13:18:01.949Z,24.80
2019-02-14T13:20:31.586Z,22.60
2019-02-14T13:23:01.284Z,26.73
2019-02-14T13:25:30.810Z,21.00
2019-02-14T13:28:00.520Z,25.90
2019-02-14T13:30:30.458Z,24.07
2019-02-14T13:33:00.202Z,30.93
2019-02-14T13:35:29.880Z,24.00
2019-02-14T13:37:59.663Z,28.07
2019-02-14T13:40:29.517Z,25.20
2019-02-14T13:42:59.198Z,26.00
2019-02-14T13:45:28.729Z,26.17
2019-02-14T13:47:58.450Z,29.13
2019-02-14T13:50:28.178Z,24.27
2019-02-14T13:52:57.954Z,28.30
2019-02-14T13:55:28.376Z,28.90
2019-02-14T13:57:58.073Z,23.67
2019-02-14T14:00:28.342Z,25.00
2019-02-14T14:02:57.894Z,31.33
2019-02-14T14:05:27.517Z,29.20
2019-02-14T14:07:57.204Z,30.63
2019-02-14T14:10:26.798Z,30.53
2019-02-14T14:12:56.483Z,31.93
2019-02-14T14:15:26.270Z,30.37
2019-02-14T14:17:56.003Z,29.50
2019-02-14T14:20:25.575Z,28.30
2019-02-14T14:22:55.141Z,29.80
2019-02-14T14:25:24.780Z,28.83
2019-02-14T14:27:54.367Z,26.83
2019-02-14T14:30:24.019Z,36.13
2019-02-14T14:32:53.677Z,32.43
2019-02-14T14:35:23.355Z,29.37
2019-02-14T14:37:52.995Z,27.43
2019-02-14T14:40:22.616Z,41.17
2019-02-14T14:43:13.872Z,30.33
2019-02-14T14:45:54.169Z,32.90
2019-02-14T14:48:24.709Z,38.87
2019-02-14T14:50:54.416Z,30.10
2019-02-14T14:53:24.182Z,24.37
2019-02-14T14:55:53.820Z,26.67
2019-02-14T14:58:23.566Z,33.80
2019-02-14T15:00:53.294Z,28.93
2019-02-14T15:03:22.812Z,24.33
2019-02-14T15:05:52.500Z,25.87
2019-02-14T15:08:22.214Z,27.03
2019-02-14T15:10:51.986Z,33.13
2019-02-14T15:13:23.462Z,30.43
2019-02-14T15:15:53.105Z,30.97
2019-02-14T15:18:22.663Z,28.23
2019-02-14T15:20:52.459Z,31.77
2019-02-14T15:23:22.169Z,30.37
2019-02-14T15:25:51.729Z,30.50
2019-02-14T15:28:21.400Z,35.03
2019-02-14T15:30:51.015Z,37.67
2019-02-14T15:33:20.600Z,42.57
2019-02-14T15:35:50.375Z,37.43
2019-02-14T15:38:20.058Z,37.93
2019-02-14T15:40:49.717Z,31.30
2019-02-14T15:43:19.527Z,28.17
2019-02-14T15:45:49.351Z,26.87
2019-02-14T15:48:19.036Z,31.53
2019-02-14T15:50:48.991Z,37.23
2019-02-14T15:53:19.162Z,34.40
2019-02-14T15:55:49.465Z,31.67
2019-02-14T15:58:19.079Z,29.70
2019-02-14T16:00:49.988Z,29.87
2019-02-14T16:03:20.225Z,35.87
2019-02-14T16:05:50.872Z,38.37
2019-02-14T16:08:22.290Z,32.27
2019-02-14T16:10:54.038Z,32.40
2019-02-14T16:13:23.354Z,34.00
2019-02-14T16:15:53.899Z,29.93
2019-02-14T16:18:25.324Z,33.63
2019-02-14T16:20:55.195Z,36.20
2019-02-14T16:23:25.006Z,37.03
2019-02-14T16:25:54.624Z,34.23
2019-02-14T16:28:24.234Z,28.43
2019-02-14T16:30:56.278Z,30.50
2019-02-14T16:33:25.477Z,38.50
2019-02-14T16:35:55.102Z,32.33
2019-02-14T16:38:24.773Z,34.67
2019-02-14T16:40:54.659Z,30.20
2019-02-14T16:43:24.183Z,35.00
2019-02-14T16:45:54.158Z,39.07
2019-02-14T16:48:23.824Z,34.00
2019-02-14T16:50:53.486Z,32.00
2019-02-14T16:53:23.171Z,38.20
2019-02-14T16:56:01.679Z,34.20
2019-02-14T16:58:24.805Z,38.37
2019-02-14T17:00:54.696Z,32.80
2019-02-14T17:03:24.363Z,34.17
2019-02-14T17:05:54.183Z,36.03
2019-02-14T17:08:23.876Z,35.10
2019-02-14T17:10:53.416Z,42.00
2019-02-14T17:13:22.976Z,41.20
2019-02-14T17:15:52.727Z,38.03
2019-02-14T17:18:22.478Z,39.90
2019-02-14T17:20:52.335Z,43.80
2019-02-14T17:23:22.245Z,41.47
2019-02-14T17:25:51.858Z,40.17
2019-02-14T17:28:23.165Z,43.20
2019-02-14T17:30:53.657Z,44.40
2019-02-14T17:33:23.509Z,50.50
2019-02-14T17:35:53.154Z,40.33
2019-02-14T17:38:22.998Z,41.70
2019-02-14T17:40:52.898Z,39.17
2019-02-14T17:43:22.759Z,47.63
2019-02-14T17:45:52.469Z,44.00
2019-02-14T17:48:22.228Z,45.80
2019-02-14T17:50:52.019Z,43.03
2019-02-14T17:53:21.729Z,45.57
2019-02-14T17:55:51.541Z,42.47
2019-02-14T17:58:21.072Z,42.77
2019-02-14T18:00:50.827Z,42.10
2019-02-14T18:03:20.552Z,39.83
2019-02-14T18:05:50.251Z,45.73
2019-02-14T18:08:19.924Z,40.03
2019-02-14T18:10:54.961Z,40.20
2019-02-14T18:13:22.071Z,38.07
2019-02-14T18:15:54.894Z,45.07
2019-02-14T18:18:24.678Z,40.67
2019-02-14T18:20:54.500Z,49.10
2019-02-14T18:23:24.369Z,42.93
2019-02-14T18:25:54.216Z,45.30
2019-02-14T18:28:23.790Z,41.17
2019-02-14T18:30:53.518Z,45.23
2019-02-14T18:33:23.249Z,39.17
2019-02-14T18:35:53.059Z,41.70
2019-02-14T18:38:22.762Z,39.93
2019-02-14T18:40:52.299Z,39.93
2019-02-14T18:43:21.996Z,46.93
2019-02-14T18:45:51.702Z,41.80
2019-02-14T18:48:21.486Z,44.63
2019-02-14T18:50:51.218Z,45.83
2019-02-14T18:53:20.951Z,43.80
2019-02-14T18:55:50.765Z,49.47
2019-02-14T18:58:26.357Z,45.00
2019-02-14T19:00:51.846Z,42.80
2019-02-14T19:03:21.566Z,51.33
2019-02-14T19:05:51.106Z,44.43
2019-02-14T19:08:20.666Z,41.43
2019-02-14T19:10:50.424Z,50.67
2019-02-14T19:13:20.190Z,48.50
2019-02-14T19:15:49.847Z,41.57
2019-02-14T19:18:19.606Z,49.80
2019-02-14T19:20:49.343Z,51.10
2019-02-14T19:23:24.067Z,45.40
2019-02-14T19:25:50.302Z,58.10
2019-02-14T19:28:20.003Z,50.77
2019-02-14T19:30:49.792Z,43.47
2019-02-14T19:33:19.616Z,48.80
2019-02-14T19:35:49.256Z,49.43
2019-02-14T19:38:18.866Z,54.70
2019-02-14T19:40:48.431Z,49.97
2019-02-14T19:43:18.228Z,51.10
2019-02-14T19:45:47.970Z,51.97
2019-02-14T19:48:17.691Z,53.87
2019-02-14T19:50:47.509Z,50.93
2019-02-14T19:53:17.123Z,45.57
2019-02-14T19:55:46.739Z,52.60
2019-02-14T19:58:16.434Z,53.20
2019-02-14T20:00:46.005Z,53.03
2019-02-14T20:03:15.531Z,53.63
2019-02-14T20:05:45.370Z,50.23
2019-02-14T20:08:15.104Z,48.27
2019-02-14T20:10:44.871Z,46.73
2019-02-14T20:13:14.712Z,42.47
2019-02-14T20:15:44.276Z,52.73
2019-02-14T20:18:14.007Z,52.83
2019-02-14T20:20:43.690Z,45.77
2019-02-14T20:23:13.508Z,52.40
2019-02-14T20:25:43.280Z,48.03
2019-02-14T20:28:12.853Z,44.43
2019-02-14T20:30:42.478Z,44.87
2019-02-14T20:33:12.115Z,57.47
2019-02-14T20:35:42.658Z,46.37
2019-02-14T20:38:12.327Z,52.73
2019-02-14T20:40:41.957Z,48.70
2019-02-14T20:43:11.662Z,51.73
2019-02-14T20:45:41.199Z,49.67
2019-02-14T20:48:10.933Z,45.47
2019-02-14T20:50:40.542Z,44.60
2019-02-14T20:53:10.178Z,46.33
2019-02-14T20:55:39.921Z,41.37
2019-02-14T20:58:09.594Z,47.67
2019-02-14T21:00:39.249Z,48.83
2019-02-14T21:03:08.881Z,53.43
2019-02-14T21:05:38.503Z,52.57
2019-02-14T21:08:08.129Z,49.60
2019-02-14T21:10:37.769Z,44.60
2019-02-14T21:13:07.513Z,45.07
2019-02-14T21:15:37.266Z,46.40
2019-02-14T21:18:07.157Z,49.97
2019-02-14T21:20:36.772Z,55.07
2019-02-14T21:23:06.704Z,51.00
2019-02-14T21:25:36.490Z,54.83
2019-02-14T21:28:06.061Z,53.10
2019-02-14T21:30:36.568Z,50.77
2019-02-14T21:33:06.378Z,49.20
2019-02-14T21:35:36.011Z,48.03
2019-02-14T21:38:05.578Z,50.00
2019-02-14T21:40:35.270Z,53.43
2019-02-14T21:43:05.025Z,50.23
2019-02-14T21:45:34.755Z,49.27
2019-02-14T21:48:04.880Z,52.47
2019-02-14T21:50:34.427Z,53.47
2019-02-14T21:53:04.163Z,57.70
2019-02-14T21:55:33.884Z,55.87
2019-02-14T21:58:04.871Z,52.33
2019-02-14T22:00:35.362Z,57.50
2019-02-14T22:03:05.125Z,52.53
2019-02-14T22:05:35.003Z,55.13
2019-02-14T22:08:04.535Z,54.53
2019-02-14T22:10:34.166Z,56.87
2019-02-14T22:13:03.895Z,57.50
2019-02-14T22:15:33.605Z,56.50
2019-02-14T22:18:03.206Z,50.63
2019-02-14T22:20:32.980Z,54.00
2019-02-14T22:23:02.665Z,49.07
2019-02-14T22:25:32.287Z,50.80
2019-02-14T22:28:01.734Z,53.03
2019-02-14T22:30:31.358Z,50.03
2019-02-14T22:33:01.056Z,53.70
2019-02-14T22:35:30.731Z,53.40
2019-02-14T22:38:00.209Z,49.47
2019-02-14T22:40:29.926Z,49.03
2019-02-14T22:42:59.632Z,50.53
2019-02-14T22:45:29.324Z,51.80
2019-02-14T22:47:58.851Z,48.83
2019-02-14T22:50:28.518Z,49.00
2019-02-14T22:52:58.190Z,45.73
2019-02-14T22:55:27.925Z,48.40
2019-02-14T22:57:57.611Z,46.47
2019-02-14T23:00:39.120Z,49.43
2019-02-14T23:03:09.085Z,51.30
2019-02-14T23:05:38.872Z,44.13
2019-02-14T23:08:08.700Z,47.80
2019-02-14T23:10:38.419Z,45.57
2019-02-14T23:13:08.141Z,46.23
2019-02-14T23:15:37.659Z,47.60
2019-02-14T23:18:07.683Z,46.80
2019-02-14T23:20:37.466Z,49.67
2019-02-14T23:23:07.007Z,47.80
2019-02-14T23:25:36.678Z,47.57
2019-02-14T23:28:06.509Z,47.00
2019-02-14T23:30:36.308Z,49.87
2019-02-14T23:33:05.963Z,51.67
2019-02-14T23:35:35.581Z,47.63
2019-02-14T23:38:05.094Z,45.17
2019-02-14T23:40:34.975Z,48.63
2019-02-14T23:43:05.101Z,45.70
2019-02-14T23:45:35.043Z,45.70
2019-02-14T23:48:04.727Z,43.30
2019-02-14T23:50:34.476Z,44.37
2019-02-14T23:53:04.133Z,48.57
2019-02-14T23:55:33.766Z,48.23
2019-02-14T23:58:03.478Z,44.67
